createdAt,value
2019-01-05T00:00:20.080Z,31.07
2019-01-05T00:03:16.716Z,31.20
2019-01-05T00:06:03.065Z,38.60
2019-01-05T00:08:49.525Z,36.50
2019-01-05T00:11:31.232Z,39.73
2019-01-05T00:14:34.240Z,30.80
2019-01-05T00:17:20.243Z,33.57
2019-01-05T00:20:15.489Z,32.03
2019-01-05T00:23:05.956Z,32.07
2019-01-05T00:26:03.905Z,31.17
2019-01-05T00:29:00.805Z,30.87
2019-01-05T00:31:51.128Z,27.43
2019-01-05T00:34:48.726Z,27.40
2019-01-05T00:37:26.412Z,31.80
2019-01-05T00:40:25.456Z,25.00
2019-01-05T00:43:12.002Z,29.60
2019-01-05T00:45:58.457Z,21.90
2019-01-05T00:48:55.821Z,25.33
2019-01-05T00:51:47.773Z,20.70
2019-01-05T00:54:33.194Z,21.03
2019-01-05T00:57:29.803Z,24.67
2019-01-05T01:00:21.407Z,19.03
2019-01-05T01:03:07.505Z,20.50
2019-01-05T01:05:51.897Z,18.47
2019-01-05T01:08:38.252Z,19.37
2019-01-05T01:11:44.195Z,17.93
2019-01-05T01:14:31.889Z,18.53
2019-01-05T01:17:13.901Z,15.03
2019-01-05T01:20:10.502Z,18.23
2019-01-05T01:22:51.716Z,15.20
2019-01-05T01:25:38.364Z,16.53
2019-01-05T01:28:24.785Z,16.43
2019-01-05T01:31:18.532Z,17.37
2019-01-05T01:34:12.497Z,18.13
2019-01-05T01:36:48.660Z,14.67
2019-01-05T01:39:42.941Z,17.63
2019-01-05T01:42:44.107Z,17.50
2019-01-05T01:45:30.796Z,17.10
2019-01-05T01:48:34.480Z,20.57
2019-01-05T01:51:33.533Z,16.70
2019-01-05T01:54:24.272Z,18.97
2019-01-05T01:57:10.509Z,18.93
2019-01-05T02:00:14.740Z,25.50
2019-01-05T02:03:05.678Z,22.87
2019-01-05T02:05:46.620Z,25.60
2019-01-05T02:08:33.620Z,15.97
2019-01-05T02:11:28.754Z,25.30
2019-01-05T02:14:16.459Z,26.93
2019-01-05T02:17:10.786Z,28.00
2019-01-05T02:20:22.405Z,29.63
2019-01-05T02:23:34.749Z,28.47
2019-01-05T02:26:48.914Z,30.20
2019-01-05T02:30:01.647Z,29.70
2019-01-05T02:32:54.741Z,30.87
2019-01-05T02:36:22.478Z,20.20
2019-01-05T02:39:30.754Z,19.10
2019-01-05T02:42:52.175Z,18.07
2019-01-05T02:46:03.245Z,20.80
2019-01-05T02:49:11.956Z,19.50
2019-01-05T02:52:33.228Z,19.30
2019-01-05T02:55:43.551Z,17.80
2019-01-05T02:58:47.118Z,22.40
2019-01-05T03:02:11.891Z,18.13
2019-01-05T03:05:29.593Z,20.10
2019-01-05T03:08:38.062Z,22.10
2019-01-05T03:11:43.215Z,21.83
2019-01-05T03:14:51.309Z,21.10
2019-01-05T03:18:12.660Z,27.50
2019-01-05T03:21:16.685Z,18.57
2019-01-05T03:24:20.953Z,20.03
2019-01-05T03:27:15.717Z,17.13
2019-01-05T03:30:20.026Z,15.23
2019-01-05T03:33:25.874Z,13.93
2019-01-05T03:36:51.425Z,15.13
2019-01-05T03:39:58.227Z,14.47
2019-01-05T03:43:06.779Z,14.87
2019-01-05T03:46:23.606Z,12.43
2019-01-05T03:49:33.142Z,13.37
2019-01-05T03:52:42.998Z,11.70
2019-01-05T03:55:34.632Z,11.00
2019-01-05T03:58:36.553Z,10.37
2019-01-05T04:01:47.174Z,7.87
2019-01-05T04:04:52.741Z,9.20
2019-01-05T04:07:56.814Z,11.77
2019-01-05T04:11:10.080Z,9.30
2019-01-05T04:14:20.291Z,12.65
2019-01-05T04:17:57.289Z,6.47
2019-01-05T04:21:11.802Z,8.27
2019-01-05T04:24:22.966Z,8.07
2019-01-05T04:27:30.035Z,13.20
2019-01-05T04:30:37.139Z,8.83
2019-01-05T04:33:49.097Z,7.73
2019-01-05T04:36:47.030Z,9.77
2019-01-05T04:40:00.841Z,7.07
2019-01-05T04:43:15.923Z,8.50
2019-01-05T04:46:27.262Z,8.13
2019-01-05T04:49:19.582Z,7.33
2019-01-05T04:52:23.841Z,9.17
2019-01-05T04:55:33.339Z,10.77
2019-01-05T04:58:45.918Z,8.43
2019-01-05T05:01:59.768Z,7.40
2019-01-05T05:05:17.021Z,11.00
2019-01-05T05:08:30.960Z,10.80
2019-01-05T05:11:40.593Z,11.60
2019-01-05T05:14:30.578Z,9.90
2019-01-05T05:17:54.049Z,9.80
2019-01-05T05:21:17.408Z,9.70
2019-01-05T05:24:22.441Z,9.90
2019-01-05T05:27:27.760Z,10.43
2019-01-05T05:30:32.994Z,8.90
2019-01-05T05:33:56.170Z,13.23
2019-01-05T05:37:16.496Z,11.30
2019-01-05T05:40:23.346Z,10.27
2019-01-05T05:43:28.732Z,10.43
2019-01-05T05:46:31.999Z,12.47
2019-01-05T05:49:53.022Z,12.57
2019-01-05T05:53:02.238Z,12.40
2019-01-05T05:56:25.864Z,14.00
2019-01-05T05:59:35.465Z,9.77
2019-01-05T06:02:47.714Z,11.90
2019-01-05T06:05:46.888Z,14.67
2019-01-05T06:08:45.447Z,11.60
2019-01-05T06:12:00.749Z,11.97
2019-01-05T06:15:16.196Z,14.70
2019-01-05T06:18:20.186Z,12.67
2019-01-05T06:21:28.267Z,12.13
2019-01-05T06:24:41.405Z,8.70
2019-01-05T06:27:50.792Z,9.80
2019-01-05T06:30:53.608Z,11.70
2019-01-05T06:34:12.178Z,10.50
2019-01-05T06:37:20.787Z,12.57
2019-01-05T06:40:42.822Z,9.93
2019-01-05T06:43:42.803Z,12.50
2019-01-05T06:46:49.124Z,9.20
2019-01-05T06:49:36.520Z,12.30
2019-01-05T06:52:58.025Z,11.43
2019-01-05T06:55:56.257Z,14.17
2019-01-05T06:59:23.772Z,9.97
2019-01-05T07:02:34.682Z,10.73
2019-01-05T07:05:39.882Z,11.10
2019-01-05T07:09:16.787Z,10.37
2019-01-05T07:13:06.856Z,9.07
2019-01-05T07:16:35.932Z,9.60
2019-01-05T07:20:29.346Z,11.07
2019-01-05T07:24:10.710Z,8.77
2019-01-05T07:27:31.028Z,6.77
2019-01-05T07:30:55.974Z,11.30
2019-01-05T07:34:00.120Z,10.63
2019-01-05T07:37:05.637Z,13.33
2019-01-05T07:40:20.808Z,10.83
2019-01-05T07:43:33.669Z,10.47
2019-01-05T07:46:37.904Z,12.47
2019-01-05T07:49:59.176Z,8.70
2019-01-05T07:53:16.063Z,15.43
2019-01-05T07:56:18.467Z,12.23
2019-01-05T07:59:21.743Z,16.63
2019-01-05T08:02:27.046Z,10.20
2019-01-05T08:05:38.585Z,13.17
2019-01-05T08:09:03.045Z,14.60
2019-01-05T08:12:09.048Z,7.83
2019-01-05T08:15:20.734Z,9.33
2019-01-05T08:18:32.161Z,10.20
2019-01-05T08:21:31.658Z,11.57
2019-01-05T08:24:47.012Z,7.90
2019-01-05T08:27:52.180Z,11.70
2019-01-05T08:30:47.922Z,8.63
2019-01-05T08:34:08.893Z,6.20
2019-01-05T08:37:06.172Z,9.37
2019-01-05T08:40:18.698Z,9.97
2019-01-05T08:43:24.019Z,8.83
2019-01-05T08:46:48.576Z,4.47
2019-01-05T08:50:02.530Z,6.90
2019-01-05T08:53:06.065Z,8.80
2019-01-05T08:56:17.040Z,5.97
2019-01-05T08:59:27.858Z,8.90
2019-01-05T09:02:43.138Z,8.17
2019-01-05T09:06:08.284Z,6.20
2019-01-05T09:09:33.424Z,8.87
2019-01-05T09:12:59.115Z,5.40
2019-01-05T09:16:07.022Z,7.87
2019-01-05T09:19:21.357Z,10.83
2019-01-05T09:22:24.452Z,6.13
2019-01-05T09:25:28.253Z,6.73
2019-01-05T09:28:50.517Z,7.00
2019-01-05T09:32:02.986Z,6.37
2019-01-05T09:35:13.122Z,13.33
2019-01-05T09:38:37.669Z,4.50
2019-01-05T09:41:55.125Z,10.03
2019-01-05T09:45:06.583Z,6.50
2019-01-05T09:48:02.765Z,6.17
2019-01-05T09:51:20.405Z,5.73
2019-01-05T09:54:33.202Z,9.23
2019-01-05T09:57:28.192Z,8.70
2019-01-05T10:00:44.202Z,9.13
2019-01-05T10:03:52.479Z,7.33
2019-01-05T10:06:57.112Z,12.00
2019-01-05T10:10:20.334Z,6.00
2019-01-05T10:13:26.133Z,6.00
2019-01-05T10:16:39.817Z,5.90
2019-01-05T10:20:07.472Z,5.37
2019-01-05T10:23:34.974Z,7.57
2019-01-05T10:26:38.829Z,9.00
2019-01-05T10:29:43.588Z,4.93
2019-01-05T10:32:43.379Z,10.17
2019-01-05T10:35:52.477Z,9.13
2019-01-05T10:38:57.430Z,6.90
2019-01-05T10:41:56.138Z,6.67
2019-01-05T10:45:00.503Z,6.13
2019-01-05T10:48:13.093Z,9.40
2019-01-05T10:51:35.062Z,8.90
2019-01-05T10:55:17.574Z,9.77
2019-01-05T10:58:28.425Z,11.73
2019-01-05T11:01:33.504Z,9.37
2019-01-05T11:04:42.457Z,7.87
2019-01-05T11:08:01.554Z,9.03
2019-01-05T11:10:56.890Z,8.40
2019-01-05T11:14:19.893Z,8.50
2019-01-05T11:17:26.175Z,9.00
2019-01-05T11:20:36.243Z,10.50
2019-01-05T11:23:31.764Z,9.60
2019-01-05T11:26:37.336Z,9.67
2019-01-05T11:30:11.007Z,8.53
2019-01-05T11:33:30.225Z,11.30
2019-01-05T11:36:26.744Z,13.57
2019-01-05T11:39:50.345Z,15.80
2019-01-05T11:42:47.075Z,7.93
2019-01-05T11:45:52.830Z,7.80
2019-01-05T11:49:10.284Z,8.87
2019-01-05T11:52:24.820Z,9.20
2019-01-05T11:55:32.828Z,9.03
2019-01-05T11:58:58.045Z,8.27
2019-01-05T12:02:20.089Z,11.37
2019-01-05T12:05:22.894Z,9.87
2019-01-05T12:08:31.422Z,10.20
2019-01-05T12:11:48.680Z,10.23
2019-01-05T12:15:02.103Z,10.50
2019-01-05T12:18:28.629Z,16.13
2019-01-05T12:21:36.822Z,8.20
2019-01-05T12:24:41.005Z,9.73
2019-01-05T12:27:56.389Z,6.70
2019-01-05T12:31:30.362Z,14.30
2019-01-05T12:34:34.206Z,9.43
2019-01-05T12:37:38.284Z,9.90
2019-01-05T12:40:47.209Z,10.43
2019-01-05T12:43:54.455Z,8.10
2019-01-05T12:47:01.580Z,10.10
2019-01-05T12:50:06.829Z,19.27
2019-01-05T12:53:04.638Z,13.27
2019-01-05T12:56:14.428Z,18.03
2019-01-05T12:59:22.733Z,13.80
2019-01-05T13:02:37.350Z,14.23
2019-01-05T13:05:51.282Z,10.93
2019-01-05T13:09:19.028Z,14.27
2019-01-05T13:12:30.610Z,16.57
2019-01-05T13:15:43.205Z,11.20
2019-01-05T13:18:55.736Z,11.80
2019-01-05T13:22:08.500Z,12.27
2019-01-05T13:25:12.453Z,9.03
2019-01-05T13:28:16.568Z,10.43
2019-01-05T13:31:20.368Z,10.93
2019-01-05T13:34:28.897Z,11.47
2019-01-05T13:37:42.394Z,14.40
2019-01-05T13:40:46.607Z,12.27
2019-01-05T13:43:58.349Z,13.60
2019-01-05T13:47:17.017Z,12.77
2019-01-05T13:50:34.644Z,12.63
2019-01-05T13:53:39.845Z,11.90
2019-01-05T13:56:29.021Z,12.47
2019-01-05T13:59:16.005Z,12.03
2019-01-05T14:02:03.140Z,12.93
2019-01-05T14:04:54.378Z,11.53
2019-01-05T14:08:00.276Z,14.27
2019-01-05T14:10:46.300Z,15.90
2019-01-05T14:13:32.429Z,11.97
2019-01-05T14:16:18.549Z,15.17
2019-01-05T14:19:04.938Z,10.30
2019-01-05T14:21:51.340Z,11.80
2019-01-05T14:24:37.768Z,10.93
2019-01-05T14:27:24.237Z,11.80
2019-01-05T14:30:24.119Z,12.70
2019-01-05T14:33:14.621Z,11.57
2019-01-05T14:36:08.397Z,13.67
2019-01-05T14:39:02.000Z,11.53
2019-01-05T14:41:52.828Z,11.00
2019-01-05T14:44:41.109Z,11.33
2019-01-05T14:47:31.845Z,16.83
2019-01-05T14:50:25.454Z,11.97
2019-01-05T14:53:11.560Z,9.97
2019-01-05T14:55:57.986Z,12.17
2019-01-05T14:58:45.689Z,11.10
2019-01-05T15:01:51.646Z,11.90
2019-01-05T15:04:37.616Z,9.47
2019-01-05T15:07:31.358Z,12.30
2019-01-05T15:10:21.982Z,10.60
2019-01-05T15:13:15.652Z,9.90
2019-01-05T15:16:22.216Z,11.90
2019-01-05T15:19:22.177Z,13.00
2019-01-05T15:22:24.918Z,11.70
2019-01-05T15:25:18.553Z,9.93
2019-01-05T15:28:05.222Z,11.90
2019-01-05T15:31:08.704Z,11.03
2019-01-05T15:33:49.012Z,8.93
2019-01-05T15:36:40.090Z,13.13
2019-01-05T15:39:37.535Z,10.90
2019-01-05T15:42:41.570Z,10.80
2019-01-05T15:45:28.587Z,12.00
2019-01-05T15:48:15.219Z,11.50
2019-01-05T15:51:03.416Z,11.03
2019-01-05T15:54:06.581Z,9.70
2019-01-05T15:57:12.606Z,21.07
2019-01-05T16:00:01.487Z,11.70
2019-01-05T16:02:47.531Z,12.87
2019-01-05T16:05:38.533Z,12.73
2019-01-05T16:08:25.581Z,11.30
2019-01-05T16:11:12.948Z,13.43
2019-01-05T16:14:01.700Z,10.33
2019-01-05T16:17:04.894Z,17.60
2019-01-05T16:19:48.862Z,14.70
2019-01-05T16:22:34.934Z,13.40
2019-01-05T16:25:28.721Z,17.07
2019-01-05T16:28:15.080Z,13.93
2019-01-05T16:31:08.734Z,14.00
2019-01-05T16:33:56.501Z,18.40
2019-01-05T16:36:42.669Z,15.93
2019-01-05T16:39:29.092Z,12.33
2019-01-05T16:42:23.048Z,13.77
2019-01-05T16:45:23.002Z,12.67
2019-01-05T16:48:28.680Z,10.03
2019-01-05T16:51:19.641Z,11.60
2019-01-05T16:54:07.465Z,17.30
2019-01-05T16:56:58.038Z,18.90
2019-01-05T16:59:57.173Z,13.90
2019-01-05T17:02:50.994Z,18.60
2019-01-05T17:05:56.662Z,19.40
2019-01-05T17:08:39.384Z,14.53
2019-01-05T17:11:30.275Z,16.17
2019-01-05T17:14:16.147Z,17.23
2019-01-05T17:17:19.142Z,18.93
2019-01-05T17:20:02.235Z,17.60
2019-01-05T17:22:49.964Z,11.37
2019-01-05T17:25:52.700Z,17.57
2019-01-05T17:28:40.502Z,17.37
2019-01-05T17:31:40.289Z,11.53
2019-01-05T17:34:31.475Z,13.67
2019-01-05T17:37:13.613Z,14.50
2019-01-05T17:40:04.519Z,12.83
2019-01-05T17:43:01.288Z,16.40
2019-01-05T17:45:51.938Z,19.17
2019-01-05T17:48:38.750Z,18.07
2019-01-05T17:51:47.341Z,15.80
2019-01-05T17:54:42.832Z,18.80
2019-01-05T17:57:37.376Z,15.10
2019-01-05T18:00:23.867Z,15.30
2019-01-05T18:03:20.793Z,21.10
2019-01-05T18:06:17.486Z,18.63
2019-01-05T18:09:03.706Z,13.13
2019-01-05T18:11:50.338Z,20.63
2019-01-05T18:14:34.794Z,23.50
2019-01-05T18:17:21.031Z,17.20
2019-01-05T18:20:14.633Z,17.30
2019-01-05T18:23:14.658Z,19.53
2019-01-05T18:26:01.223Z,35.13
2019-01-05T18:28:55.382Z,19.20
2019-01-05T18:31:45.959Z,15.30
2019-01-05T18:34:32.233Z,16.57
2019-01-05T18:37:22.921Z,20.60
2019-01-05T18:40:16.833Z,14.33
2019-01-05T18:43:03.082Z,19.03
2019-01-05T18:45:53.632Z,18.00
2019-01-05T18:48:53.611Z,21.70
2019-01-05T18:51:56.313Z,15.87
2019-01-05T18:54:56.033Z,21.67
2019-01-05T18:57:42.258Z,20.00
2019-01-05T19:00:39.142Z,22.33
2019-01-05T19:03:35.827Z,17.93
2019-01-05T19:06:21.961Z,16.97
2019-01-05T19:09:15.984Z,17.67
2019-01-05T19:12:08.561Z,15.10
2019-01-05T19:15:03.692Z,13.93
2019-01-05T19:17:51.438Z,16.37
2019-01-05T19:20:54.293Z,16.67
2019-01-05T19:23:48.232Z,17.13
2019-01-05T19:26:35.617Z,16.60
2019-01-05T19:29:22.031Z,14.77
2019-01-05T19:32:09.773Z,15.30
2019-01-05T19:35:15.654Z,15.00
2019-01-05T19:37:56.740Z,17.13
2019-01-05T19:40:53.452Z,15.93
2019-01-05T19:43:46.962Z,14.20
2019-01-05T19:46:39.276Z,13.23
2019-01-05T19:49:25.640Z,14.73
2019-01-05T19:52:28.667Z,19.10
2019-01-05T19:55:14.994Z,18.87
2019-01-05T19:58:01.391Z,22.37
2019-01-05T20:00:55.161Z,11.40
2019-01-05T20:03:57.079Z,18.13
2019-01-05T20:06:44.857Z,13.60
2019-01-05T20:09:38.437Z,16.30
2019-01-05T20:12:32.297Z,15.37
2019-01-05T20:15:16.629Z,18.10
2019-01-05T20:18:03.141Z,16.13
2019-01-05T20:20:46.158Z,16.87
2019-01-05T20:23:35.118Z,14.97
2019-01-05T20:26:15.185Z,15.17
2019-01-05T20:29:05.692Z,14.87
2019-01-05T20:31:56.514Z,19.73
2019-01-05T20:34:40.045Z,17.00
2019-01-05T20:37:30.764Z,17.20
2019-01-05T20:40:14.281Z,15.00
2019-01-05T20:43:00.697Z,14.00
2019-01-05T20:45:46.894Z,18.10
2019-01-05T20:48:33.206Z,14.70
2019-01-05T20:51:32.833Z,17.60
2019-01-05T20:54:19.001Z,16.10
2019-01-05T20:57:05.861Z,16.00
2019-01-05T21:00:01.075Z,15.23
2019-01-05T21:03:07.110Z,16.40
2019-01-05T21:05:57.625Z,18.17
2019-01-05T21:08:53.010Z,20.50
2019-01-05T21:11:44.848Z,14.30
2019-01-05T21:14:31.288Z,18.20
2019-01-05T21:17:27.940Z,15.83
2019-01-05T21:20:21.449Z,18.10
2019-01-05T21:23:07.545Z,21.87
2019-01-05T21:26:04.433Z,15.17
2019-01-05T21:28:56.053Z,16.43
2019-01-05T21:31:42.968Z,18.53
2019-01-05T21:34:23.744Z,13.53
2019-01-05T21:37:29.641Z,14.43
2019-01-05T21:40:16.019Z,19.50
2019-01-05T21:43:09.900Z,17.13
2019-01-05T21:45:53.122Z,15.67
2019-01-05T21:48:39.555Z,17.40
2019-01-05T21:51:26.228Z,17.07
2019-01-05T21:54:13.937Z,16.33
2019-01-05T21:57:04.192Z,14.17
2019-01-05T21:59:57.945Z,18.70
2019-01-05T22:02:51.517Z,13.63
2019-01-05T22:05:37.859Z,17.13
2019-01-05T22:08:28.574Z,14.60
2019-01-05T22:11:31.485Z,15.43
2019-01-05T22:14:22.271Z,15.93
2019-01-05T22:17:08.781Z,16.40
2019-01-05T22:19:56.202Z,13.67
2019-01-05T22:22:37.671Z,16.07
2019-01-05T22:25:31.242Z,15.53
2019-01-05T22:28:21.718Z,13.90
2019-01-05T22:31:07.857Z,19.27
2019-01-05T22:33:54.350Z,15.57
2019-01-05T22:36:36.983Z,21.73
2019-01-05T22:39:43.320Z,17.33
2019-01-05T22:42:42.762Z,19.17
2019-01-05T22:45:32.982Z,16.77
2019-01-05T22:48:16.798Z,22.73
2019-01-05T22:51:11.657Z,17.87
2019-01-05T22:53:58.063Z,20.70
2019-01-05T22:56:44.476Z,20.97
2019-01-05T22:59:35.196Z,23.43
2019-01-05T23:02:21.090Z,18.20
2019-01-05T23:05:17.657Z,18.63
2019-01-05T23:08:04.089Z,20.50
2019-01-05T23:10:57.643Z,18.17
2019-01-05T23:13:54.329Z,20.47
2019-01-05T23:16:44.798Z,18.37
2019-01-05T23:19:38.250Z,13.70
2019-01-05T23:22:23.269Z,12.90
2019-01-05T23:25:14.116Z,14.73
2019-01-05T23:28:07.897Z,16.53
2019-01-05T23:31:01.762Z,20.00
2019-01-05T23:33:48.188Z,10.93
2019-01-05T23:36:51.031Z,16.10
2019-01-05T23:39:38.741Z,10.77
2019-01-05T23:42:24.890Z,14.07
2019-01-05T23:45:18.670Z,12.90
2019-01-05T23:48:05.389Z,12.30
2019-01-05T23:50:59.244Z,12.33
2019-01-05T23:53:47.227Z,10.10
2019-01-05T23:56:33.900Z,10.20
2019-01-05T23:59:19.994Z,11.53
